Time;durP1;ratioP1;P1;durP2;ratioP2;P2;SDS_P1;SDS_P2;PMS_P1;PMS_P2;Temp;Humidity;BMP_temperature;BMP_pressure;BME280_temperature;BME280_humidity;BME280_pressure;Samples;Min_cycle;Max_cycle;Signal;HPM_P1;HPM_P2
2021/09/05 00:01:24;;;;;;;9.63;8.60;;;22.00;36.60;;;;;;4974189;28;20217;-68
2021/09/05 00:03:49;;;;;;;9.60;8.80;;;22.00;36.60;;;;;;4975305;28;20202;-68
2021/09/05 00:06:15;;;;;;;9.40;8.50;;;22.00;36.60;;;;;;4975156;28;20187;-68
2021/09/05 00:08:42;;;;;;;8.63;7.40;;;22.00;36.70;;;;;;4974918;28;20183;-68
2021/09/05 00:11:07;;;;;;;8.67;7.97;;;22.00;36.70;;;;;;4974972;28;20194;-68
2021/09/05 00:13:33;;;;;;;9.57;8.70;;;22.00;36.60;;;;;;4975063;28;20414;-68
2021/09/05 00:15:58;;;;;;;9.53;8.70;;;22.00;36.60;;;;;;4974879;28;20249;-68
2021/09/05 00:18:24;;;;;;;11.30;8.50;;;22.00;36.70;;;;;;4974787;28;20175;-68
2021/09/05 00:20:49;;;;;;;9.07;8.27;;;22.00;36.70;;;;;;4974837;28;20191;-69
2021/09/05 00:23:15;;;;;;;10.10;9.10;;;22.00;36.70;;;;;;4974822;28;20257;-69
2021/09/05 00:25:41;;;;;;;9.27;8.47;;;21.90;36.60;;;;;;4974758;28;20183;-68
2021/09/05 00:28:06;;;;;;;9.37;8.50;;;22.00;36.70;;;;;;4974707;28;20261;-68
2021/09/05 00:30:32;;;;;;;8.97;8.17;;;22.00;36.80;;;;;;4974428;28;20227;-68
2021/09/05 00:32:58;;;;;;;9.00;8.20;;;22.00;36.70;;;;;;4974705;28;20179;-68
2021/09/05 00:35:23;;;;;;;9.10;8.40;;;22.00;36.70;;;;;;4974568;28;20261;-68
2021/09/05 00:37:49;;;;;;;9.03;8.33;;;22.00;36.70;;;;;;4974503;28;20179;-68
2021/09/05 00:40:14;;;;;;;9.40;8.67;;;21.90;36.60;;;;;;4974117;28;20191;-68
2021/09/05 00:42:40;;;;;;;9.40;8.50;;;22.00;36.70;;;;;;4974505;28;20186;-68
2021/09/05 00:45:06;;;;;;;8.80;8.10;;;21.90;36.60;;;;;;4974511;28;20186;-67
2021/09/05 00:47:31;;;;;;;8.73;7.83;;;21.90;36.60;;;;;;4974447;28;20665;-69
2021/09/05 00:49:57;;;;;;;9.80;8.93;;;21.90;36.70;;;;;;4974154;28;20442;-67
2021/09/05 00:52:24;;;;;;;8.60;7.90;;;21.90;36.80;;;;;;4974068;28;20178;-69
2021/09/05 00:54:50;;;;;;;8.90;8.20;;;21.90;36.80;;;;;;4974267;28;20265;-67
2021/09/05 00:57:17;;;;;;;10.17;9.17;;;21.90;36.80;;;;;;4974176;28;20497;-68
2021/09/05 00:59:46;;;;;;;9.40;8.50;;;21.90;36.70;;;;;;4974018;28;20426;-67
2021/09/05 01:02:12;;;;;;;8.33;7.47;;;22.00;36.80;;;;;;4973939;28;20445;-67
2021/09/05 01:04:37;;;;;;;9.23;8.43;;;22.00;36.70;;;;;;4974132;28;20418;-67
2021/09/05 01:07:03;;;;;;;8.20;7.60;;;21.90;36.70;;;;;;4973885;28;20233;-70
2021/09/05 01:09:29;;;;;;;9.40;8.70;;;21.90;36.60;;;;;;4973694;28;20736;-67
2021/09/05 01:11:56;;;;;;;8.37;7.67;;;21.90;36.60;;;;;;4973873;28;20498;-68
2021/09/05 01:14:22;;;;;;;8.73;8.03;;;22.00;36.60;;;;;;4973705;28;20513;-68
2021/09/05 01:16:47;;;;;;;8.60;7.87;;;21.90;36.50;;;;;;4973804;28;20418;-68
2021/09/05 01:19:16;;;;;;;8.33;7.53;;;21.90;36.60;;;;;;4973656;28;20171;-68
2021/09/05 01:21:43;;;;;;;9.23;8.43;;;21.90;36.70;;;;;;4973524;28;20277;-68
2021/09/05 01:24:09;;;;;;;8.00;7.33;;;22.00;36.70;;;;;;4973764;28;20406;-68
2021/09/05 01:26:37;;;;;;;8.70;8.00;;;21.90;36.70;;;;;;4973793;28;20406;-68
2021/09/05 01:29:04;;;;;;;8.60;7.90;;;21.90;36.60;;;;;;4973417;28;20436;-67
2021/09/05 01:31:47;;;;;;;9.40;7.87;;;21.90;36.60;;;;;;4973626;28;20487;-67
2021/09/05 01:34:16;;;;;;;8.83;8.03;;;21.90;36.60;;;;;;4973524;28;20418;-67
2021/09/05 01:36:42;;;;;;;8.73;8.03;;;21.90;36.60;;;;;;4973402;28;20414;-68
2021/09/05 01:39:10;;;;;;;8.77;8.00;;;21.90;36.60;;;;;;4973442;28;20508;-68
2021/09/05 01:41:35;;;;;;;9.53;8.77;;;21.90;36.60;;;;;;4973432;28;20984;-67
2021/09/05 01:44:03;;;;;;;8.90;8.20;;;21.90;36.60;;;;;;4973500;28;20418;-67
2021/09/05 01:46:29;;;;;;;9.70;8.83;;;21.90;36.70;;;;;;4973330;28;20266;-67
2021/09/05 01:48:55;;;;;;;8.57;7.87;;;21.90;36.80;;;;;;4973151;28;21051;-67
2021/09/05 01:51:20;;;;;;;9.17;8.37;;;21.90;36.80;;;;;;4973165;28;20213;-68
2021/09/05 01:53:46;;;;;;;8.30;7.70;;;21.90;36.80;;;;;;4973385;28;20550;-68
2021/09/05 01:56:11;;;;;;;8.20;7.60;;;21.90;36.90;;;;;;4973123;28;20202;-69
2021/09/05 01:58:37;;;;;;;8.50;7.90;;;21.90;36.90;;;;;;4973122;28;20174;-68
2021/09/05 02:01:02;;;;;;;8.13;7.50;;;21.90;36.90;;;;;;4972952;28;20210;-68
2021/09/05 02:03:28;;;;;;;8.93;8.27;;;21.90;36.90;;;;;;4973490;28;20175;-68
2021/09/05 02:05:54;;;;;;;8.20;7.60;;;21.90;36.80;;;;;;4973189;28;20179;-68
2021/09/05 02:08:19;;;;;;;8.17;7.37;;;21.90;36.80;;;;;;4972952;28;20638;-68
2021/09/05 02:10:45;;;;;;;8.43;7.73;;;21.90;36.80;;;;;;4972994;28;20558;-68
2021/09/05 02:13:10;;;;;;;9.27;8.50;;;21.90;36.80;;;;;;4973023;28;20189;-68
2021/09/05 02:15:36;;;;;;;9.57;8.80;;;21.90;37.50;;;;;;4972986;28;20627;-68
2021/09/05 02:18:01;;;;;;;8.83;8.03;;;21.90;36.80;;;;;;4972966;28;20295;-68
2021/09/05 02:20:27;;;;;;;9.63;8.70;;;21.90;36.80;;;;;;4972919;28;20198;-68
2021/09/05 02:22:52;;;;;;;8.33;7.73;;;21.90;36.80;;;;;;4972939;28;20189;-68
2021/09/05 02:25:18;;;;;;;9.20;8.43;;;21.90;36.80;;;;;;4975166;28;20553;-68
2021/09/05 02:27:43;;;;;;;12.43;8.00;;;21.90;36.80;;;;;;4977043;28;20179;-68
2021/09/05 02:30:10;;;;;;;8.10;7.50;;;21.90;36.80;;;;;;4976679;28;20411;-69
2021/09/05 02:32:36;;;;;;;8.00;7.40;;;21.90;36.80;;;;;;4976877;28;20191;-68
2021/09/05 02:35:03;;;;;;;9.00;8.20;;;21.90;36.90;;;;;;4976635;28;20824;-68
2021/09/05 02:37:29;;;;;;;9.17;8.27;;;21.90;36.80;;;;;;4976838;28;20500;-68
2021/09/05 02:39:54;;;;;;;8.43;7.73;;;21.80;36.80;;;;;;4976503;28;20576;-68
2021/09/05 02:42:20;;;;;;;8.07;7.43;;;21.80;36.80;;;;;;4976627;28;20678;-68
2021/09/05 02:44:45;;;;;;;9.33;8.43;;;21.80;36.80;;;;;;4976669;28;20170;-68
2021/09/05 02:47:11;;;;;;;9.30;8.40;;;21.80;36.70;;;;;;4976539;28;20206;-68
2021/09/05 02:49:37;;;;;;;8.50;7.73;;;21.80;36.70;;;;;;4976300;28;20253;-68
2021/09/05 02:52:02;;;;;;;8.70;8.00;;;21.80;36.80;;;;;;4976493;28;20170;-68
2021/09/05 02:54:28;;;;;;;8.40;7.70;;;21.80;36.70;;;;;;4976448;28;20249;-68
2021/09/05 02:56:53;;;;;;;8.57;7.87;;;21.80;36.70;;;;;;4976417;28;20175;-68
2021/09/05 02:59:19;;;;;;;8.43;7.73;;;21.80;36.70;;;;;;4976172;28;20183;-68
2021/09/05 03:01:44;;;;;;;8.47;7.87;;;21.80;36.70;;;;;;4976091;28;20253;-68
2021/09/05 03:04:10;;;;;;;7.83;7.23;;;21.80;36.70;;;;;;4976267;28;20175;-68
2021/09/05 03:06:36;;;;;;;8.83;8.13;;;21.80;36.70;;;;;;4976286;28;20174;-68
2021/09/05 03:09:02;;;;;;;8.50;7.70;;;21.80;36.70;;;;;;4975954;28;20249;-68
2021/09/05 03:11:28;;;;;;;8.13;7.43;;;21.80;36.70;;;;;;4976195;28;20516;-68
2021/09/05 03:13:53;;;;;;;8.10;7.50;;;21.80;36.70;;;;;;4976117;28;20917;-68
2021/09/05 03:16:19;;;;;;;8.77;8.07;;;21.80;36.80;;;;;;4975970;28;20669;-68
2021/09/05 03:18:44;;;;;;;7.70;7.10;;;21.80;36.70;;;;;;4975745;28;20637;-68
2021/09/05 03:21:10;;;;;;;8.20;7.50;;;21.80;36.70;;;;;;4975838;28;20333;-68
2021/09/05 03:23:35;;;;;;;8.80;8.10;;;21.80;36.70;;;;;;4975946;28;20175;-68
2021/09/05 03:26:01;;;;;;;8.40;7.60;;;21.80;36.80;;;;;;4975933;28;20175;-68
2021/09/05 03:28:26;;;;;;;7.87;7.27;;;21.80;36.70;;;;;;4975630;28;20182;-68
2021/09/05 03:30:52;;;;;;;7.47;6.87;;;21.80;36.70;;;;;;4975767;28;20725;-68
2021/09/05 03:33:18;;;;;;;8.80;8.10;;;21.80;36.70;;;;;;4975667;28;20182;-68
2021/09/05 03:35:43;;;;;;;9.10;8.30;;;21.80;36.70;;;;;;4974924;28;20465;-68
2021/09/05 03:38:09;;;;;;;9.23;8.33;;;21.80;36.70;;;;;;4975207;28;20633;-68
2021/09/05 03:40:34;;;;;;;11.33;7.70;;;21.80;36.60;;;;;;4975344;28;20253;-68
2021/09/05 03:43:00;;;;;;;8.73;8.07;;;21.80;36.70;;;;;;4975599;28;20185;-68
2021/09/05 03:45:26;;;;;;;7.97;7.37;;;21.80;36.70;;;;;;4975557;28;20210;-68
2021/09/05 03:47:51;;;;;;;8.50;7.80;;;21.80;36.70;;;;;;4975365;28;20633;-68
2021/09/05 03:50:17;;;;;;;8.47;7.77;;;21.80;37.40;;;;;;4975205;28;20569;-68
2021/09/05 03:52:44;;;;;;;7.20;6.50;;;21.80;36.70;;;;;;4975501;28;20558;-68
2021/09/05 03:55:10;;;;;;;7.80;7.23;;;21.80;36.70;;;;;;4975249;28;20205;-68
2021/09/05 03:57:36;;;;;;;8.93;8.13;;;21.80;36.60;;;;;;4975227;28;20414;-68
2021/09/05 04:00:01;;;;;;;8.53;7.60;;;21.80;36.60;;;;;;4974881;28;20434;-68
2021/09/05 04:02:27;;;;;;;7.40;6.70;;;21.80;36.70;;;;;;4975309;28;20170;-68
2021/09/05 04:04:52;;;;;;;8.23;7.47;;;21.80;36.70;;;;;;4973747;28;20183;-68
2021/09/05 04:07:19;;;;;;;8.03;7.43;;;21.80;36.70;;;;;;4975162;28;20470;-68
2021/09/05 04:12:29;;;;;;;8.70;7.93;;;21.80;36.70;;;;;;4975376;28;20409;-68
2021/09/05 04:14:54;;;;;;;8.20;7.50;;;21.80;36.70;;;;;;4975134;28;20757;-68
2021/09/05 04:17:20;;;;;;;7.90;7.30;;;21.80;36.70;;;;;;4974985;28;20190;-68
2021/09/05 04:19:45;;;;;;;8.13;7.53;;;21.80;36.80;;;;;;4974519;28;20202;-68
2021/09/05 04:22:11;;;;;;;8.23;7.63;;;21.80;36.70;;;;;;4975020;28;20211;-68
2021/09/05 04:24:37;;;;;;;7.63;7.03;;;21.80;36.70;;;;;;4974748;28;20653;-68
2021/09/05 04:27:03;;;;;;;8.93;8.13;;;21.80;36.70;;;;;;4974840;28;20254;-68
2021/09/05 04:29:29;;;;;;;7.63;7.13;;;21.70;36.60;;;;;;4974414;28;20854;-68
2021/09/05 04:31:54;;;;;;;7.33;6.80;;;21.70;36.50;;;;;;4989665;28;20433;-68
2021/09/05 04:34:20;;;;;;;8.43;7.73;;;21.80;36.60;;;;;;4974415;28;20206;-68
2021/09/05 04:36:46;;;;;;;8.00;7.40;;;21.80;36.60;;;;;;4974610;28;20314;-69
2021/09/05 04:39:11;;;;;;;7.97;7.37;;;21.80;36.60;;;;;;4974271;28;20202;-69
2021/09/05 04:41:37;;;;;;;8.50;7.80;;;21.80;36.60;;;;;;4974415;28;20714;-70
2021/09/05 04:44:02;;;;;;;8.50;7.70;;;21.70;36.50;;;;;;4969181;28;20173;-68
2021/09/05 04:46:28;;;;;;;8.03;7.37;;;21.80;36.60;;;;;;4966839;28;20183;-69
2021/09/05 04:48:53;;;;;;;8.27;7.10;;;21.80;36.70;;;;;;4954471;28;20633;-69
2021/09/05 04:51:19;;;;;;;7.03;6.53;;;21.70;36.70;;;;;;4954413;28;20199;-70
2021/09/05 04:53:44;;;;;;;7.70;7.10;;;21.70;36.70;;;;;;4954699;29;20558;-74
2021/09/05 04:56:10;;;;;;;8.07;7.30;;;21.80;36.80;;;;;;4954516;29;20293;-69
2021/09/05 04:58:35;;;;;;;7.83;7.10;;;21.80;36.80;;;;;;4954243;29;20183;-71
2021/09/05 05:01:01;;;;;;;7.73;7.03;;;21.80;36.90;;;;;;4954462;28;20342;-71
2021/09/05 05:03:26;;;;;;;7.70;6.90;;;21.80;37.00;;;;;;4954745;29;20230;-71
2021/09/05 05:05:52;;;;;;;8.07;7.37;;;21.80;37.00;;;;;;4954428;29;20642;-68
2021/09/05 05:08:17;;;;;;;7.40;6.70;;;21.80;37.10;;;;;;4954168;29;20179;-68
2021/09/05 05:10:45;;;;;;;7.93;7.23;;;21.80;37.10;;;;;;4954137;28;20210;-69
2021/09/05 05:13:10;;;;;;;7.87;7.17;;;21.80;37.10;;;;;;4954599;29;20187;-71
2021/09/05 05:15:36;;;;;;;8.00;7.30;;;21.80;37.10;;;;;;4954123;29;20467;-70
2021/09/05 05:18:01;;;;;;;7.23;6.73;;;21.80;37.10;;;;;;4954585;29;20179;-69
2021/09/05 05:20:29;;;;;;;7.63;7.03;;;21.70;37.00;;;;;;4954111;28;20274;-69
2021/09/05 05:22:54;;;;;;;8.10;7.40;;;21.80;37.10;;;;;;4953839;28;20182;-68
2021/09/05 05:25:20;;;;;;;7.33;6.73;;;21.70;37.20;;;;;;4954238;29;20411;-68
2021/09/05 05:27:46;;;;;;;8.40;7.70;;;21.80;37.10;;;;;;4954205;29;20175;-68
2021/09/05 05:30:12;;;;;;;7.43;6.83;;;21.80;37.10;;;;;;4953982;28;20613;-68
2021/09/05 05:32:37;;;;;;;7.87;7.23;;;21.70;36.90;;;;;;4954028;29;20419;-70
2021/09/05 05:35:03;;;;;;;8.00;7.10;;;21.80;37.00;;;;;;4954205;29;20253;-71
2021/09/05 05:37:29;;;;;;;7.57;6.80;;;21.70;36.90;;;;;;4953803;28;20175;-68
2021/09/05 05:39:55;;;;;;;7.20;6.60;;;21.70;36.80;;;;;;4953727;28;20794;-68
2021/09/05 05:42:20;;;;;;;7.40;6.80;;;21.70;36.80;;;;;;4953948;29;20194;-68
2021/09/05 05:44:45;;;;;;;9.40;8.33;;;21.70;36.80;;;;;;4953812;29;20666;-68
2021/09/05 05:47:11;;;;;;;8.30;7.50;;;21.80;36.90;;;;;;4953820;29;20179;-67
2021/09/05 05:49:39;;;;;;;8.53;7.83;;;21.70;36.80;;;;;;4953653;28;20187;-69
2021/09/05 05:52:05;;;;;;;9.00;8.20;;;21.70;36.90;;;;;;4953733;28;20214;-70
2021/09/05 05:54:30;;;;;;;8.37;7.67;;;21.70;36.90;;;;;;4968378;28;20430;-68
2021/09/05 05:56:56;;;;;;;7.60;7.10;;;21.70;36.80;;;;;;4953924;29;20905;-68
2021/09/05 05:59:21;;;;;;;7.33;6.80;;;21.70;36.80;;;;;;4952576;28;20203;-69
2021/09/05 06:01:47;;;;;;;8.57;7.87;;;21.70;36.70;;;;;;4953636;29;20357;-67
2021/09/05 06:04:12;;;;;;;10.73;7.90;;;21.70;36.80;;;;;;4953670;29;20175;-67
2021/09/05 06:06:40;;;;;;;9.67;8.80;;;21.70;36.70;;;;;;4953539;29;20188;-68
2021/09/05 06:09:06;;;;;;;10.97;8.50;;;21.70;36.60;;;;;;4953333;29;20175;-68
2021/09/05 06:11:32;;;;;;;9.07;8.27;;;21.70;36.30;;;;;;4953692;28;20430;-68
2021/09/05 06:13:57;;;;;;;8.77;7.97;;;21.70;36.20;;;;;;4953546;29;20660;-68
2021/09/05 06:16:23;;;;;;;9.77;8.80;;;21.70;36.00;;;;;;4953560;29;20218;-67
2021/09/05 06:18:49;;;;;;;8.63;7.83;;;21.70;35.90;;;;;;4953330;29;20167;-68
2021/09/05 06:21:14;;;;;;;8.57;7.87;;;21.70;35.70;;;;;;4953401;28;20628;-68
2021/09/05 06:23:40;;;;;;;9.07;8.17;;;21.70;35.60;;;;;;4953477;29;20183;-67
2021/09/05 06:26:05;;;;;;;9.97;8.97;;;21.70;35.80;;;;;;4953576;29;20705;-68
2021/09/05 06:28:31;;;;;;;9.47;8.60;;;21.70;35.80;;;;;;4953227;29;20296;-68
2021/09/05 06:30:56;;;;;;;9.90;9.00;;;21.70;35.80;;;;;;4953281;28;20195;-68
2021/09/05 06:33:22;;;;;;;10.10;8.60;;;21.70;35.70;;;;;;4953592;29;20179;-67
2021/09/05 06:35:48;;;;;;;14.23;8.90;;;21.70;35.40;;;;;;4953095;29;20249;-68
2021/09/05 06:38:13;;;;;;;9.90;8.90;;;21.60;35.20;;;;;;4968306;28;20267;-68
2021/09/05 06:40:39;;;;;;;9.50;8.60;;;21.70;35.30;;;;;;4953124;28;20198;-68
2021/09/05 06:43:04;;;;;;;14.40;8.83;;;21.60;35.20;;;;;;4953272;29;20547;-68
2021/09/05 06:45:30;;;;;;;9.10;8.30;;;21.60;35.10;;;;;;4953278;28;20571;-67
2021/09/05 06:47:56;;;;;;;11.33;8.27;;;21.60;35.20;;;;;;4953271;29;20227;-67
2021/09/05 06:50:21;;;;;;;9.33;8.47;;;21.60;35.30;;;;;;4952773;28;20511;-68
2021/09/05 06:52:47;;;;;;;11.17;9.20;;;21.70;35.50;;;;;;4952106;29;20852;-68
2021/09/05 06:55:12;;;;;;;8.60;7.90;;;21.60;35.40;;;;;;4952991;29;20917;-68
2021/09/05 06:57:38;;;;;;;8.90;8.00;;;21.60;35.40;;;;;;4952342;29;20581;-68
2021/09/05 07:00:04;;;;;;;12.37;9.00;;;21.60;35.40;;;;;;4952211;28;20681;-68
2021/09/05 07:02:29;;;;;;;8.53;7.73;;;21.60;35.40;;;;;;4952709;28;20195;-68
2021/09/05 07:04:55;;;;;;;8.33;7.40;;;21.60;35.30;;;;;;4952496;29;20415;-67
2021/09/05 07:07:21;;;;;;;10.00;8.77;;;21.60;35.20;;;;;;4952446;29;20186;-68
2021/09/05 07:09:46;;;;;;;9.53;8.70;;;21.60;35.20;;;;;;4952329;28;20697;-68
2021/09/05 07:12:12;;;;;;;11.20;8.90;;;21.60;35.30;;;;;;4956801;28;20179;-68
2021/09/05 07:14:37;;;;;;;8.70;8.00;;;21.60;35.30;;;;;;4956803;29;20290;-67
2021/09/05 07:17:03;;;;;;;8.87;8.17;;;21.60;35.30;;;;;;4956833;28;20171;-67
2021/09/05 07:19:29;;;;;;;11.70;9.43;;;21.60;35.30;;;;;;4956477;28;20709;-67
2021/09/05 07:21:54;;;;;;;9.23;8.40;;;21.60;35.50;;;;;;4956548;29;20182;-67
2021/09/05 07:24:20;;;;;;;9.03;8.23;;;21.60;35.50;;;;;;4956675;29;20736;-67
2021/09/05 07:26:45;;;;;;;8.70;7.90;;;21.60;35.60;;;;;;4956559;29;20642;-67
2021/09/05 07:29:11;;;;;;;8.73;7.83;;;21.60;35.60;;;;;;4956358;29;20179;-69
2021/09/05 07:31:37;;;;;;;10.30;8.77;;;21.60;35.70;;;;;;4956395;28;20191;-67
2021/09/05 07:34:03;;;;;;;8.00;7.40;;;21.60;35.80;;;;;;4956468;29;20407;-67
2021/09/05 07:36:28;;;;;;;9.60;7.50;;;21.60;36.00;;;;;;4951082;28;20557;-67
2021/09/05 07:38:54;;;;;;;8.20;7.50;;;21.60;36.10;;;;;;4945984;29;20179;-67
2021/09/05 07:41:19;;;;;;;8.30;7.60;;;21.60;36.00;;;;;;4955120;29;20270;-68
2021/09/05 07:43:45;;;;;;;8.83;7.70;;;21.60;36.10;;;;;;4956377;29;20186;-68
2021/09/05 07:46:11;;;;;;;8.40;7.70;;;21.60;36.20;;;;;;4956076;29;20180;-68
2021/09/05 07:48:37;;;;;;;10.30;7.70;;;21.60;36.20;;;;;;4955982;28;20551;-68
2021/09/05 07:51:02;;;;;;;9.00;8.30;;;21.60;36.20;;;;;;4956062;29;20435;-68
2021/09/05 07:53:28;;;;;;;12.37;8.83;;;21.60;36.30;;;;;;4956078;28;20271;-68
2021/09/05 07:55:53;;;;;;;10.43;8.57;;;21.60;36.20;;;;;;4956055;28;20831;-68
2021/09/05 07:58:21;;;;;;;8.90;8.10;;;21.60;36.30;;;;;;4955739;28;20263;-68
2021/09/05 08:00:46;;;;;;;8.90;8.07;;;21.60;36.30;;;;;;4955875;28;20230;-68
2021/09/05 08:03:12;;;;;;;12.70;8.57;;;21.60;36.30;;;;;;4952076;29;20419;-68
2021/09/05 08:05:37;;;;;;;9.60;8.70;;;21.60;36.50;;;;;;4952162;29;20587;-68
2021/09/05 08:08:03;;;;;;;8.23;7.53;;;21.60;36.50;;;;;;4938811;29;20184;-68
2021/09/05 08:10:29;;;;;;;11.30;8.63;;;21.60;36.50;;;;;;4936511;29;20199;-68
2021/09/05 08:12:54;;;;;;;8.80;7.93;;;21.60;36.40;;;;;;4936550;29;20180;-68
2021/09/05 08:15:20;;;;;;;9.07;8.20;;;21.60;36.50;;;;;;4936696;29;20258;-68
2021/09/05 08:17:45;;;;;;;8.60;7.80;;;21.60;36.50;;;;;;4935424;29;20215;-68
2021/09/05 08:20:11;;;;;;;10.10;8.70;;;21.60;36.50;;;;;;4936434;29;20188;-68
2021/09/05 08:22:37;;;;;;;10.53;9.30;;;21.60;36.50;;;;;;4935689;29;20187;-68
2021/09/05 08:25:03;;;;;;;10.33;7.90;;;21.60;36.50;;;;;;4936688;29;20408;-68
2021/09/05 08:27:29;;;;;;;9.03;8.23;;;21.60;36.60;;;;;;4936676;29;20519;-68
2021/09/05 08:29:54;;;;;;;9.40;8.50;;;21.60;36.70;;;;;;4943065;29;20447;-68
2021/09/05 08:32:20;;;;;;;7.80;6.83;;;21.60;36.70;;;;;;4947970;29;20181;-68
2021/09/05 08:34:45;;;;;;;8.47;7.60;;;21.60;36.70;;;;;;4936293;29;20581;-68
2021/09/05 08:37:11;;;;;;;8.50;7.80;;;21.60;36.70;;;;;;4936178;29;20176;-68
2021/09/05 08:39:36;;;;;;;9.60;8.73;;;21.70;36.80;;;;;;4936136;29;20176;-68
2021/09/05 08:42:02;;;;;;;8.07;7.27;;;21.70;36.80;;;;;;4936106;29;20186;-68
2021/09/05 08:44:28;;;;;;;9.47;8.67;;;21.70;36.80;;;;;;4934845;29;20187;-68
2021/09/05 08:46:55;;;;;;;8.40;7.70;;;21.70;36.70;;;;;;4936085;29;20190;-68
2021/09/05 08:49:26;;;;;;;8.70;7.77;;;21.70;36.60;;;;;;4935678;29;20228;-67
2021/09/05 08:51:52;;;;;;;8.23;7.50;;;21.70;36.60;;;;;;4935909;29;20419;-68
2021/09/05 08:54:18;;;;;;;9.37;8.37;;;21.80;36.80;;;;;;4935919;29;20412;-68
2021/09/05 08:56:46;;;;;;;8.57;7.87;;;21.80;36.80;;;;;;4935694;29;20432;-68
2021/09/05 08:59:12;;;;;;;7.63;6.80;;;21.90;36.90;;;;;;4935521;29;20548;-68
2021/09/05 09:01:37;;;;;;;8.70;7.77;;;21.90;37.00;;;;;;4935482;29;20466;-67
2021/09/05 09:04:05;;;;;;;8.33;7.53;;;21.90;37.00;;;;;;4935500;29;20207;-68
2021/09/05 09:06:39;;;;;;;10.17;9.07;;;21.90;36.90;;;;;;4935488;29;20647;-67
2021/09/05 09:09:06;;;;;;;8.80;8.00;;;22.00;36.90;;;;;;4935260;29;20420;-68
2021/09/05 09:11:52;;;;;;;8.67;7.70;;;22.00;36.90;;;;;;4935563;29;20439;-68
2021/09/05 09:14:21;;;;;;;9.30;8.33;;;22.00;36.90;;;;;;4953778;29;20430;-68
2021/09/05 09:16:47;;;;;;;9.60;8.80;;;22.10;37.00;;;;;;4954481;28;20434;-68
2021/09/05 09:19:27;;;;;;;7.57;6.97;;;22.10;37.00;;;;;;4954618;28;20407;-67
2021/09/05 09:21:54;;;;;;;8.40;7.70;;;22.10;37.00;;;;;;4954697;28;20175;-67
2021/09/05 09:24:21;;;;;;;7.57;6.97;;;22.10;36.90;;;;;;4954415;28;20503;-68
2021/09/05 09:27:05;;;;;;;8.57;7.80;;;22.10;36.80;;;;;;4954213;28;20406;-68
2021/09/05 09:29:32;;;;;;;9.07;7.20;;;22.20;36.90;;;;;;4983437;28;20418;-67
2021/09/05 09:31:59;;;;;;;8.30;7.60;;;22.20;36.90;;;;;;4951525;28;20410;-68
2021/09/05 09:34:25;;;;;;;8.47;7.57;;;22.20;36.90;;;;;;4952677;28;20414;-69
2021/09/05 09:36:58;;;;;;;7.23;6.67;;;22.30;37.10;;;;;;4953881;28;20491;-68
2021/09/05 09:39:26;;;;;;;7.10;6.60;;;22.30;37.10;;;;;;4953690;28;20212;-68
2021/09/05 09:41:51;;;;;;;7.53;6.83;;;22.30;37.10;;;;;;4954005;28;20419;-68
2021/09/05 09:44:17;;;;;;;7.90;7.30;;;22.30;37.00;;;;;;4953225;29;20915;-68
2021/09/05 09:46:44;;;;;;;7.57;7.00;;;22.30;36.90;;;;;;4953769;29;20650;-68
2021/09/05 09:49:14;;;;;;;7.90;7.10;;;22.30;36.90;;;;;;4962004;28;20238;-68
2021/09/05 09:51:41;;;;;;;7.50;6.80;;;22.40;36.90;;;;;;4939491;28;20451;-68
2021/09/05 09:54:07;;;;;;;7.90;6.90;;;22.40;36.90;;;;;;4939659;28;20451;-67
2021/09/05 09:56:34;;;;;;;8.70;8.00;;;22.40;36.80;;;;;;4939704;28;20463;-67
2021/09/05 09:59:02;;;;;;;9.83;7.57;;;22.30;36.60;;;;;;4937471;28;20461;-68
2021/09/05 10:01:30;;;;;;;8.20;7.50;;;22.30;36.60;;;;;;4938089;28;20462;-67
2021/09/05 10:04:00;;;;;;;7.53;6.83;;;22.30;36.70;;;;;;4939766;28;20451;-68
2021/09/05 10:06:28;;;;;;;7.23;6.63;;;22.30;36.70;;;;;;4939413;28;20461;-68
2021/09/05 10:08:56;;;;;;;7.57;6.87;;;22.30;36.90;;;;;;4938877;28;20458;-68
2021/09/05 10:11:23;;;;;;;8.00;7.00;;;22.30;37.00;;;;;;4938782;28;20518;-68
2021/09/05 10:13:49;;;;;;;7.77;6.83;;;22.30;37.00;;;;;;4938901;28;20493;-69
2021/09/05 10:16:15;;;;;;;6.90;6.40;;;22.30;37.00;;;;;;4935488;28;20885;-69
2021/09/05 10:18:45;;;;;;;7.60;6.97;;;22.30;37.10;;;;;;4935400;28;20226;-68
2021/09/05 10:21:14;;;;;;;7.27;6.57;;;22.40;37.10;;;;;;4938775;28;20470;-67
2021/09/05 10:23:55;;;;;;;16.40;7.80;;;22.40;37.10;;;;;;4930123;28;20558;-67
2021/09/05 10:26:22;;;;;;;7.70;7.00;;;22.40;36.90;;;;;;4948341;28;20464;-69
2021/09/05 10:28:57;;;;;;;7.13;6.53;;;22.50;37.00;;;;;;4952256;28;20619;-68
2021/09/05 10:31:28;;;;;;;7.67;7.07;;;22.50;37.00;;;;;;4936773;28;20576;-67
2021/09/05 10:33:54;;;;;;;7.73;7.13;;;22.50;37.00;;;;;;4939961;28;20491;-66
2021/09/05 10:36:23;;;;;;;7.70;7.10;;;22.50;36.90;;;;;;4938534;28;20463;-67
2021/09/05 10:38:49;;;;;;;8.30;7.70;;;22.50;36.80;;;;;;4939129;28;20578;-67
2021/09/05 10:41:21;;;;;;;8.10;7.40;;;22.60;36.70;;;;;;4939090;28;20649;-67
2021/09/05 10:43:49;;;;;;;7.30;6.60;;;22.60;36.70;;;;;;4939769;28;20553;-68
2021/09/05 10:46:27;;;;;;;7.30;6.57;;;22.60;36.60;;;;;;4938136;28;21193;-66
2021/09/05 10:49:01;;;;;;;7.93;7.30;;;22.70;36.50;;;;;;4936310;28;20459;-67
2021/09/05 10:51:38;;;;;;;8.13;7.53;;;22.60;36.40;;;;;;4937202;28;21057;-71
2021/09/05 10:54:06;;;;;;;7.77;6.57;;;22.70;36.40;;;;;;4940369;28;21140;-66
2021/09/05 10:56:34;;;;;;;6.33;5.83;;;22.70;36.00;;;;;;4942156;28;20483;-67
2021/09/05 10:59:04;;;;;;;6.67;6.17;;;22.70;35.90;;;;;;4938710;28;20465;-68
2021/09/05 11:01:36;;;;;;;7.00;6.50;;;22.70;36.00;;;;;;4961182;28;20957;-68
2021/09/05 11:04:10;;;;;;;7.50;6.57;;;22.70;35.90;;;;;;4960355;28;20453;-68
2021/09/05 11:06:39;;;;;;;6.50;5.90;;;22.80;36.10;;;;;;4962109;28;20461;-68
2021/09/05 11:09:23;;;;;;;7.57;6.90;;;22.80;36.10;;;;;;4961463;28;20442;-67
2021/09/05 11:12:07;;;;;;;6.97;6.47;;;22.80;36.00;;;;;;4954383;28;20553;-69
2021/09/05 11:14:35;;;;;;;7.10;6.60;;;22.90;36.10;;;;;;4942156;28;20975;-68
2021/09/05 11:17:02;;;;;;;7.00;6.47;;;22.90;36.00;;;;;;4942630;28;20921;-68
2021/09/05 11:19:28;;;;;;;5.60;5.20;;;22.90;36.00;;;;;;4942196;28;21302;-68
2021/09/05 11:21:54;;;;;;;6.60;6.10;;;22.90;35.80;;;;;;4941607;28;20454;-68
2021/09/05 11:24:19;;;;;;;5.53;5.13;;;22.90;35.60;;;;;;4941658;28;20954;-68
2021/09/05 11:27:02;;;;;;;6.30;5.73;;;22.90;35.50;;;;;;4941207;28;20231;-67
2021/09/05 11:29:27;;;;;;;6.57;5.97;;;22.90;35.30;;;;;;4940981;28;20219;-69
2021/09/05 11:32:03;;;;;;;5.73;5.23;;;23.00;35.40;;;;;;4942148;28;20454;-69
2021/09/05 11:34:29;;;;;;;6.77;6.13;;;23.00;35.30;;;;;;4941954;28;20235;-68
2021/09/05 11:36:55;;;;;;;8.30;5.73;;;23.00;35.20;;;;;;4942058;28;20513;-69
2021/09/05 11:39:21;;;;;;;6.23;5.63;;;23.00;35.10;;;;;;4941759;28;20235;-68
2021/09/05 11:41:57;;;;;;;6.43;6.00;;;23.00;35.00;;;;;;4941510;28;20554;-69
2021/09/05 11:44:41;;;;;;;6.30;5.80;;;23.00;34.90;;;;;;4937826;28;20314;-68
2021/09/05 11:47:11;;;;;;;6.43;5.97;;;23.00;34.90;;;;;;4941795;28;20461;-68
2021/09/05 11:49:55;;;;;;;6.70;6.10;;;23.00;34.70;;;;;;4941710;28;20454;-69
2021/09/05 11:52:27;;;;;;;7.10;6.50;;;23.10;34.80;;;;;;4940225;28;20490;-69
2021/09/05 11:55:12;;;;;;;6.13;5.63;;;23.10;34.90;;;;;;4941937;28;20471;-68
2021/09/05 11:58:02;;;;;;;6.33;5.87;;;23.00;34.80;;;;;;4940576;28;20446;-69
2021/09/05 12:00:40;;;;;;;6.00;5.60;;;23.10;34.80;;;;;;4940183;28;20459;-69
2021/09/05 12:03:12;;;;;;;6.00;5.37;;;23.10;34.80;;;;;;4941456;28;20552;-68
2021/09/05 12:05:39;;;;;;;6.70;5.97;;;23.10;34.80;;;;;;4941777;28;20450;-68
2021/09/05 12:08:05;;;;;;;5.87;5.47;;;23.10;34.90;;;;;;4937136;28;20443;-70
2021/09/05 12:10:32;;;;;;;6.13;5.43;;;23.10;34.90;;;;;;4932585;28;20471;-67
2021/09/05 12:13:07;;;;;;;6.60;5.93;;;23.10;34.80;;;;;;4941606;28;20789;-67
2021/09/05 12:15:43;;;;;;;6.40;5.90;;;23.10;34.70;;;;;;4940466;28;20487;-68
2021/09/05 12:18:22;;;;;;;6.53;6.03;;;23.10;34.50;;;;;;4920766;28;20467;-68
2021/09/05 12:20:59;;;;;;;5.40;5.00;;;23.10;34.50;;;;;;4916182;28;20810;-69
2021/09/05 12:23:31;;;;;;;5.57;5.17;;;23.10;34.30;;;;;;4917437;28;20459;-69
2021/09/05 12:26:03;;;;;;;5.77;5.37;;;23.10;34.50;;;;;;4919111;28;20515;-68
2021/09/05 12:28:33;;;;;;;5.30;4.90;;;23.10;34.60;;;;;;4916446;28;20471;-68
2021/09/05 12:31:00;;;;;;;5.63;5.23;;;23.10;34.50;;;;;;4912213;28;20453;-68
2021/09/05 12:33:26;;;;;;;8.03;6.10;;;23.10;34.50;;;;;;4910756;28;21044;-68
2021/09/05 12:35:54;;;;;;;6.27;5.77;;;23.10;34.50;;;;;;4902621;28;20456;-68
2021/09/05 12:38:27;;;;;;;5.63;5.13;;;23.10;34.50;;;;;;4906918;28;20236;-69
2021/09/05 12:40:54;;;;;;;5.60;5.20;;;23.10;34.40;;;;;;4904852;28;20487;-68
2021/09/05 12:43:46;;;;;;;6.30;5.70;;;23.10;34.30;;;;;;4903802;28;20468;-69
2021/09/05 12:46:12;;;;;;;5.97;5.50;;;23.10;35.00;;;;;;4918977;28;20452;-68
2021/09/05 12:48:40;;;;;;;5.70;5.20;;;23.10;34.20;;;;;;4908727;28;20511;-67